sensor_id;sensor_type;location;lat;lon;timestamp;pressure;altitude;pressure_sealevel;temperature;humidity
37832;BME280;23671;38.090;-122.570;2022-11-15T00:00:59;101898.00;;;13.23;63.58
37832;BME280;23671;38.090;-122.570;2022-11-15T00:03:27;101896.09;;;13.25;64.02
37832;BME280;23671;38.090;-122.570;2022-11-15T00:05:54;101892.63;;;13.24;63.81
37832;BME280;23671;38.090;-122.570;2022-11-15T00:08:21;101891.66;;;13.25;64.01
37832;BME280;23671;38.090;-122.570;2022-11-15T00:10:56;101889.84;;;13.26;64.07
37832;BME280;23671;38.090;-122.570;2022-11-15T00:13:23;101891.66;;;13.25;64.15
37832;BME280;23671;38.090;-122.570;2022-11-15T00:15:50;101893.38;;;13.26;64.21
37832;BME280;23671;38.090;-122.570;2022-11-15T00:18:18;101894.31;;;13.25;63.85
37832;BME280;23671;38.090;-122.570;2022-11-15T00:20:45;101890.72;;;13.26;63.80
37832;BME280;23671;38.090;-122.570;2022-11-15T00:23:12;101876.59;;;13.26;63.94
37832;BME280;23671;38.090;-122.570;2022-11-15T00:25:39;101888.88;;;13.27;63.36
37832;BME280;23671;38.090;-122.570;2022-11-15T00:28:06;101881.78;;;13.27;63.88
37832;BME280;23671;38.090;-122.570;2022-11-15T00:30:34;101891.44;;;13.28;63.70
37832;BME280;23671;38.090;-122.570;2022-11-15T00:33:08;101891.53;;;13.27;63.68
37832;BME280;23671;38.090;-122.570;2022-11-15T00:35:35;101883.56;;;13.27;63.46
37832;BME280;23671;38.090;-122.570;2022-11-15T00:38:03;101888.06;;;13.26;63.31
37832;BME280;23671;38.090;-122.570;2022-11-15T00:40:30;101883.69;;;13.25;63.28
37832;BME280;23671;38.090;-122.570;2022-11-15T00:42:57;101889.00;;;13.25;63.21
37832;BME280;23671;38.090;-122.570;2022-11-15T00:45:25;101888.16;;;13.25;63.80
37832;BME280;23671;38.090;-122.570;2022-11-15T00:48:11;101890.72;;;13.26;63.77
37832;BME280;23671;38.090;-122.570;2022-11-15T00:50:38;101888.78;;;13.28;64.30
37832;BME280;23671;38.090;-122.570;2022-11-15T00:53:05;101884.44;;;13.27;63.64
37832;BME280;23671;38.090;-122.570;2022-11-15T00:55:32;101883.56;;;13.27;64.26
37832;BME280;23671;38.090;-122.570;2022-11-15T00:57:59;101887.94;;;13.28;64.33
37832;BME280;23671;38.090;-122.570;2022-11-15T01:00:26;101894.19;;;13.27;64.23
37832;BME280;23671;38.090;-122.570;2022-11-15T01:02:53;101891.53;;;13.27;64.45
37832;BME280;23671;38.090;-122.570;2022-11-15T01:05:20;101892.50;;;13.26;63.71
37832;BME280;23671;38.090;-122.570;2022-11-15T01:07:50;101888.16;;;13.25;63.85
37832;BME280;23671;38.090;-122.570;2022-11-15T01:10:18;101896.09;;;13.25;63.77
37832;BME280;23671;38.090;-122.570;2022-11-15T01:12:45;101893.69;;;13.22;63.40
37832;BME280;23671;38.090;-122.570;2022-11-15T01:15:12;101894.72;;;13.19;63.27
37832;BME280;23671;38.090;-122.570;2022-11-15T01:17:39;101891.34;;;13.17;62.88
37832;BME280;23671;38.090;-122.570;2022-11-15T01:20:06;101900.28;;;13.16;62.90
37832;BME280;23671;38.090;-122.570;2022-11-15T01:22:33;101906.63;;;13.14;62.75
37832;BME280;23671;38.090;-122.570;2022-11-15T01:25:00;101906.00;;;13.10;62.69
37832;BME280;23671;38.090;-122.570;2022-11-15T01:27:27;101905.38;;;13.07;63.08
37832;BME280;23671;38.090;-122.570;2022-11-15T01:29:54;101912.47;;;13.06;62.78
37832;BME280;23671;38.090;-122.570;2022-11-15T01:32:21;101911.75;;;13.04;61.98
37832;BME280;23671;38.090;-122.570;2022-11-15T01:34:48;101916.25;;;13.02;62.05
37832;BME280;23671;38.090;-122.570;2022-11-15T01:37:15;101917.31;;;13.00;62.39
37832;BME280;23671;38.090;-122.570;2022-11-15T01:39:42;101924.66;;;12.96;61.84
37832;BME280;23671;38.090;-122.570;2022-11-15T01:42:15;101929.19;;;12.94;61.38
37832;BME280;23671;38.090;-122.570;2022-11-15T01:44:52;101923.38;;;12.89;61.35
37832;BME280;23671;38.090;-122.570;2022-11-15T01:50:03;101930.16;;;12.80;60.97
37832;BME280;23671;38.090;-122.570;2022-11-15T01:52:34;101933.97;;;12.76;61.43
37832;BME280;23671;38.090;-122.570;2022-11-15T01:55:05;101943.13;;;12.72;61.19
37832;BME280;23671;38.090;-122.570;2022-11-15T01:57:34;101950.50;;;12.67;61.40
37832;BME280;23671;38.090;-122.570;2022-11-15T02:00:03;101947.97;;;12.66;61.17
37832;BME280;23671;38.090;-122.570;2022-11-15T02:02:30;101941.19;;;12.62;60.55
37832;BME280;23671;38.090;-122.570;2022-11-15T02:04:57;101938.66;;;12.60;61.25
37832;BME280;23671;38.090;-122.570;2022-11-15T02:07:25;101948.69;;;12.55;61.06
37832;BME280;23671;38.090;-122.570;2022-11-15T02:09:53;101950.59;;;12.53;61.23
37832;BME280;23671;38.090;-122.570;2022-11-15T02:12:22;101945.63;;;12.49;60.73
37832;BME280;23671;38.090;-122.570;2022-11-15T02:14:52;101956.41;;;12.46;60.95
37832;BME280;23671;38.090;-122.570;2022-11-15T02:31:22;101963.88;;;12.27;60.66
37832;BME280;23671;38.090;-122.570;2022-11-15T02:34:12;101965.03;;;12.23;60.36
37832;BME280;23671;38.090;-122.570;2022-11-15T02:37:13;101972.91;;;12.24;60.44
37832;BME280;23671;38.090;-122.570;2022-11-15T02:42:26;101970.66;;;12.18;60.16
37832;BME280;23671;38.090;-122.570;2022-11-15T02:45:17;101980.50;;;12.16;60.03
37832;BME280;23671;38.090;-122.570;2022-11-15T02:47:47;101974.56;;;12.13;60.10
37832;BME280;23671;38.090;-122.570;2022-11-15T02:50:19;101978.91;;;12.14;59.85
37832;BME280;23671;38.090;-122.570;2022-11-15T02:52:49;101982.69;;;12.10;59.43
37832;BME280;23671;38.090;-122.570;2022-11-15T02:55:36;101977.72;;;12.05;59.27
37832;BME280;23671;38.090;-122.570;2022-11-15T02:58:29;101976.97;;;12.03;59.76
37832;BME280;23671;38.090;-122.570;2022-11-15T03:06:50;101988.34;;;11.91;58.85
37832;BME280;23671;38.090;-122.570;2022-11-15T03:12:21;101993.81;;;11.88;59.69
37832;BME280;23671;38.090;-122.570;2022-11-15T03:14:57;101994.13;;;11.83;59.44
37832;BME280;23671;38.090;-122.570;2022-11-15T03:17:42;101997.81;;;11.81;60.05
37832;BME280;23671;38.090;-122.570;2022-11-15T03:20:13;101997.91;;;11.79;59.36
37832;BME280;23671;38.090;-122.570;2022-11-15T03:22:44;102000.94;;;11.73;59.87
37832;BME280;23671;38.090;-122.570;2022-11-15T03:25:18;101993.19;;;11.70;59.48
37832;BME280;23671;38.090;-122.570;2022-11-15T03:27:50;101997.75;;;11.68;59.71
37832;BME280;23671;38.090;-122.570;2022-11-15T03:30:19;102008.69;;;11.62;59.86
37832;BME280;23671;38.090;-122.570;2022-11-15T03:32:55;102012.34;;;11.60;59.29
37832;BME280;23671;38.090;-122.570;2022-11-15T03:35:25;102008.09;;;11.57;59.37
37832;BME280;23671;38.090;-122.570;2022-11-15T03:41:05;102004.81;;;11.40;59.88
37832;BME280;23671;38.090;-122.570;2022-11-15T03:43:43;102001.72;;;11.33;59.77
37832;BME280;23671;38.090;-122.570;2022-11-15T03:46:27;102015.09;;;11.30;59.61
37832;BME280;23671;38.090;-122.570;2022-11-15T03:49:07;102010.19;;;11.24;59.81
37832;BME280;23671;38.090;-122.570;2022-11-15T03:51:36;102012.28;;;11.19;59.68
37832;BME280;23671;38.090;-122.570;2022-11-15T03:54:06;102016.03;;;11.15;59.65
37832;BME280;23671;38.090;-122.570;2022-11-15T03:56:33;102010.19;;;11.10;59.85
37832;BME280;23671;38.090;-122.570;2022-11-15T03:59:00;102026.97;;;11.09;59.63
37832;BME280;23671;38.090;-122.570;2022-11-15T04:01:27;102033.50;;;11.04;59.89
37832;BME280;23671;38.090;-122.570;2022-11-15T04:03:54;102045.19;;;10.99;59.86
37832;BME280;23671;38.090;-122.570;2022-11-15T04:06:21;102043.59;;;10.97;59.73
37832;BME280;23671;38.090;-122.570;2022-11-15T04:08:48;102035.94;;;10.92;59.92
37832;BME280;23671;38.090;-122.570;2022-11-15T04:11:15;102042.25;;;10.90;59.76
37832;BME280;23671;38.090;-122.570;2022-11-15T04:13:42;102048.59;;;10.87;59.69
37832;BME280;23671;38.090;-122.570;2022-11-15T04:16:09;102045.53;;;10.79;59.92
37832;BME280;23671;38.090;-122.570;2022-11-15T04:18:36;102051.84;;;10.77;59.84
37832;BME280;23671;38.090;-122.570;2022-11-15T04:21:03;102057.31;;;10.74;59.94
37832;BME280;23671;38.090;-122.570;2022-11-15T04:23:48;102054.06;;;10.69;59.76
37832;BME280;23671;38.090;-122.570;2022-11-15T04:26:33;102055.19;;;10.65;59.74
37832;BME280;23671;38.090;-122.570;2022-11-15T04:29:00;102058.03;;;10.62;59.62
37832;BME280;23671;38.090;-122.570;2022-11-15T04:31:45;102060.06;;;10.57;59.86
37832;BME280;23671;38.090;-122.570;2022-11-15T04:34:12;102069.13;;;10.53;59.96
37832;BME280;23671;38.090;-122.570;2022-11-15T04:36:39;102062.31;;;10.49;59.77
37832;BME280;23671;38.090;-122.570;2022-11-15T04:39:24;102054.75;;;10.43;59.92
37832;BME280;23671;38.090;-122.570;2022-11-15T04:41:51;102065.31;;;10.43;59.87
37832;BME280;23671;38.090;-122.570;2022-11-15T04:44:18;102061.13;;;10.39;59.93
37832;BME280;23671;38.090;-122.570;2022-11-15T04:46:45;102068.28;;;10.37;60.51
37832;BME280;23671;38.090;-122.570;2022-11-15T04:49:12;102069.28;;;10.34;60.12
37832;BME280;23671;38.090;-122.570;2022-11-15T04:51:39;102068.53;;;10.32;59.98
37832;BME280;23671;38.090;-122.570;2022-11-15T04:54:06;102067.88;;;10.29;60.21
37832;BME280;23671;38.090;-122.570;2022-11-15T04:56:33;102060.28;;;10.23;59.94
37832;BME280;23671;38.090;-122.570;2022-11-15T04:59:00;102062.16;;;10.21;59.78
37832;BME280;23671;38.090;-122.570;2022-11-15T05:01:27;102073.81;;;10.17;60.15
37832;BME280;23671;38.090;-122.570;2022-11-15T05:03:54;102073.91;;;10.15;59.86
37832;BME280;23671;38.090;-122.570;2022-11-15T05:06:40;102072.47;;;10.10;60.16
37832;BME280;23671;38.090;-122.570;2022-11-15T05:09:07;102072.59;;;10.06;60.15
37832;BME280;23671;38.090;-122.570;2022-11-15T05:11:34;102078.91;;;10.04;59.83
37832;BME280;23671;38.090;-122.570;2022-11-15T05:14:01;102074.63;;;10.01;60.22
37832;BME280;23671;38.090;-122.570;2022-11-15T05:16:28;102082.75;;;9.98;60.24
37832;BME280;23671;38.090;-122.570;2022-11-15T05:18:55;102081.09;;;9.96;60.02
37832;BME280;23671;38.090;-122.570;2022-11-15T05:21:22;102074.19;;;9.93;59.92
37832;BME280;23671;38.090;-122.570;2022-11-15T05:23:49;102085.78;;;9.91;59.65
37832;BME280;23671;38.090;-122.570;2022-11-15T05:26:17;102092.22;;;9.85;60.18
37832;BME280;23671;38.090;-122.570;2022-11-15T05:28:45;102087.03;;;9.84;59.90
37832;BME280;23671;38.090;-122.570;2022-11-15T05:31:16;102087.47;;;9.76;59.99
37832;BME280;23671;38.090;-122.570;2022-11-15T05:33:44;102096.16;;;9.78;60.03
37832;BME280;23671;38.090;-122.570;2022-11-15T05:38:54;102100.06;;;9.71;60.44
37832;BME280;23671;38.090;-122.570;2022-11-15T05:41:25;102103.69;;;9.69;59.80
37832;BME280;23671;38.090;-122.570;2022-11-15T05:43:54;102103.00;;;9.65;59.75
37832;BME280;23671;38.090;-122.570;2022-11-15T05:46:21;102108.44;;;9.62;60.16
37832;BME280;23671;38.090;-122.570;2022-11-15T05:48:50;102103.44;;;9.58;59.90
37832;BME280;23671;38.090;-122.570;2022-11-15T05:51:20;102103.50;;;9.56;59.94
37832;BME280;23671;38.090;-122.570;2022-11-15T05:53:48;102107.84;;;9.57;60.24
37832;BME280;23671;38.090;-122.570;2022-11-15T05:56:16;102107.28;;;9.51;59.73
37832;BME280;23671;38.090;-122.570;2022-11-15T05:58:43;102106.53;;;9.49;59.75
37832;BME280;23671;38.090;-122.570;2022-11-15T06:01:10;102106.47;;;9.50;59.61
37832;BME280;23671;38.090;-122.570;2022-11-15T06:03:38;102106.63;;;9.47;60.32
37832;BME280;23671;38.090;-122.570;2022-11-15T06:06:05;102103.38;;;9.42;59.63
37832;BME280;23671;38.090;-122.570;2022-11-15T06:08:32;102115.78;;;9.40;59.80
37832;BME280;23671;38.090;-122.570;2022-11-15T06:11:04;102098.41;;;9.36;60.43
37832;BME280;23671;38.090;-122.570;2022-11-15T06:13:31;102095.00;;;9.34;59.86
37832;BME280;23671;38.090;-122.570;2022-11-15T06:15:59;102108.28;;;9.33;59.54
37832;BME280;23671;38.090;-122.570;2022-11-15T06:18:26;102101.47;;;9.29;60.02
37832;BME280;23671;38.090;-122.570;2022-11-15T06:20:53;102106.81;;;9.27;60.30
37832;BME280;23671;38.090;-122.570;2022-11-15T06:23:24;102094.72;;;9.23;59.70
37832;BME280;23671;38.090;-122.570;2022-11-15T06:25:51;102090.22;;;9.25;60.00
37832;BME280;23671;38.090;-122.570;2022-11-15T06:28:18;102089.59;;;9.20;59.65
37832;BME280;23671;38.090;-122.570;2022-11-15T06:30:45;102078.28;;;9.18;60.19
37832;BME280;23671;38.090;-122.570;2022-11-15T06:33:12;102084.50;;;9.17;59.46
37832;BME280;23671;38.090;-122.570;2022-11-15T06:35:39;102081.31;;;9.10;60.43
37832;BME280;23671;38.090;-122.570;2022-11-15T06:38:09;102075.97;;;9.12;60.13
37832;BME280;23671;38.090;-122.570;2022-11-15T06:40:38;102083.16;;;9.08;59.70
37832;BME280;23671;38.090;-122.570;2022-11-15T06:43:05;102088.38;;;9.10;59.51
37832;BME280;23671;38.090;-122.570;2022-11-15T06:45:33;102090.28;;;9.06;60.06
37832;BME280;23671;38.090;-122.570;2022-11-15T06:48:00;102077.22;;;9.05;59.52
37832;BME280;23671;38.090;-122.570;2022-11-15T06:50:27;102087.75;;;9.05;59.71
37832;BME280;23671;38.090;-122.570;2022-11-15T06:52:54;102090.38;;;9.05;59.57
37832;BME280;23671;38.090;-122.570;2022-11-15T06:55:21;102088.06;;;8.99;59.83
37832;BME280;23671;38.090;-122.570;2022-11-15T06:57:50;102094.41;;;8.95;59.57
37832;BME280;23671;38.090;-122.570;2022-11-15T07:00:19;102082.19;;;8.94;60.10
37832;BME280;23671;38.090;-122.570;2022-11-15T07:02:47;102086.75;;;8.90;60.17
37832;BME280;23671;38.090;-122.570;2022-11-15T07:05:15;102085.13;;;8.88;59.88
37832;BME280;23671;38.090;-122.570;2022-11-15T07:07:42;102090.38;;;8.88;59.62
37832;BME280;23671;38.090;-122.570;2022-11-15T07:10:09;102097.44;;;8.87;59.61
37832;BME280;23671;38.090;-122.570;2022-11-15T07:12:36;102086.28;;;8.82;59.70
37832;BME280;23671;38.090;-122.570;2022-11-15T07:15:04;102093.25;;;8.83;59.43
37832;BME280;23671;38.090;-122.570;2022-11-15T07:17:31;102098.59;;;8.82;59.96
37832;BME280;23671;38.090;-122.570;2022-11-15T07:19:58;102094.56;;;8.75;59.69
37832;BME280;23671;38.090;-122.570;2022-11-15T07:22:25;102100.59;;;8.77;59.40
37832;BME280;23671;38.090;-122.570;2022-11-15T07:24:52;102105.97;;;8.75;59.56
37832;BME280;23671;38.090;-122.570;2022-11-15T07:27:19;102100.81;;;8.72;59.14
37832;BME280;23671;38.090;-122.570;2022-11-15T07:29:46;102098.50;;;8.66;59.93
37832;BME280;23671;38.090;-122.570;2022-11-15T07:32:13;102102.16;;;8.64;59.45
37832;BME280;23671;38.090;-122.570;2022-11-15T07:34:40;102102.97;;;8.64;59.41
37832;BME280;23671;38.090;-122.570;2022-11-15T07:37:07;102095.84;;;8.66;59.31
37832;BME280;23671;38.090;-122.570;2022-11-15T07:39:34;102097.22;;;8.56;59.92
37832;BME280;23671;38.090;-122.570;2022-11-15T07:42:01;102107.63;;;8.59;59.38
37832;BME280;23671;38.090;-122.570;2022-11-15T07:44:46;102089.28;;;8.58;59.78
37832;BME280;23671;38.090;-122.570;2022-11-15T07:47:13;102092.91;;;8.55;59.59
37832;BME280;23671;38.090;-122.570;2022-11-15T07:49:40;102096.69;;;8.50;59.46
37832;BME280;23671;38.090;-122.570;2022-11-15T07:52:07;102096.03;;;8.45;59.27
37832;BME280;23671;38.090;-122.570;2022-11-15T07:54:34;102102.09;;;8.47;59.68
37832;BME280;23671;38.090;-122.570;2022-11-15T07:57:01;102104.72;;;8.47;59.51
37832;BME280;23671;38.090;-122.570;2022-11-15T07:59:28;102104.78;;;8.45;59.32
37832;BME280;23671;38.090;-122.570;2022-11-15T08:01:55;102106.53;;;8.46;58.94
37832;BME280;23671;38.090;-122.570;2022-11-15T08:04:22;102108.50;;;8.41;59.08
37832;BME280;23671;38.090;-122.570;2022-11-15T08:06:49;102105.94;;;8.40;59.73
37832;BME280;23671;38.090;-122.570;2022-11-15T08:09:16;102104.09;;;8.42;59.49
37832;BME280;23671;38.090;-122.570;2022-11-15T08:11:43;102099.22;;;8.34;59.35
37832;BME280;23671;38.090;-122.570;2022-11-15T08:14:10;102100.47;;;8.25;59.20
37832;BME280;23671;38.090;-122.570;2022-11-15T08:16:37;102096.78;;;8.30;59.29
37832;BME280;23671;38.090;-122.570;2022-11-15T08:19:04;102100.44;;;8.27;59.07
37832;BME280;23671;38.090;-122.570;2022-11-15T08:21:31;102095.28;;;8.24;59.62
37832;BME280;23671;38.090;-122.570;2022-11-15T08:23:58;102090.00;;;8.24;59.42
37832;BME280;23671;38.090;-122.570;2022-11-15T08:26:25;102098.88;;;8.21;59.15
37832;BME280;23671;38.090;-122.570;2022-11-15T08:28:55;102099.97;;;8.17;59.08
37832;BME280;23671;38.090;-122.570;2022-11-15T08:31:22;102093.28;;;8.10;59.72
37832;BME280;23671;38.090;-122.570;2022-11-15T08:33:49;102096.63;;;8.14;59.19
37832;BME280;23671;38.090;-122.570;2022-11-15T08:36:17;102103.03;;;8.08;59.53
37832;BME280;23671;38.090;-122.570;2022-11-15T08:38:44;102097.91;;;8.05;59.24
37832;BME280;23671;38.090;-122.570;2022-11-15T08:41:30;102095.00;;;7.93;59.54
37832;BME280;23671;38.090;-122.570;2022-11-15T08:43:57;102087.59;;;8.01;59.52
37832;BME280;23671;38.090;-122.570;2022-11-15T08:46:24;102087.69;;;7.99;59.39
37832;BME280;23671;38.090;-122.570;2022-11-15T08:48:51;102091.22;;;7.98;59.28
37832;BME280;23671;38.090;-122.570;2022-11-15T08:51:18;102087.53;;;8.02;59.53
37832;BME280;23671;38.090;-122.570;2022-11-15T08:53:45;102096.78;;;7.92;59.31
37832;BME280;23671;38.090;-122.570;2022-11-15T08:56:14;102100.41;;;7.90;59.30
37832;BME280;23671;38.090;-122.570;2022-11-15T08:58:41;102099.81;;;7.83;59.72
37832;BME280;23671;38.090;-122.570;2022-11-15T09:01:19;102114.03;;;7.79;60.07
37832;BME280;23671;38.090;-122.570;2022-11-15T09:03:46;102111.53;;;7.76;59.79
37832;BME280;23671;38.090;-122.570;2022-11-15T09:06:13;102109.81;;;7.75;59.57
37832;BME280;23671;38.090;-122.570;2022-11-15T09:08:40;102105.31;;;7.79;59.44
37832;BME280;23671;38.090;-122.570;2022-11-15T09:11:09;102104.00;;;7.69;59.72
37832;BME280;23671;38.090;-122.570;2022-11-15T09:13:37;102113.75;;;7.67;60.25
37832;BME280;23671;38.090;-122.570;2022-11-15T09:16:04;102111.53;;;7.58;60.39
37832;BME280;23671;38.090;-122.570;2022-11-15T09:18:32;102104.56;;;7.57;60.00
37832;BME280;23671;38.090;-122.570;2022-11-15T09:21:00;102113.41;;;7.54;60.52
37832;BME280;23671;38.090;-122.570;2022-11-15T09:23:29;102115.13;;;7.55;60.37
37832;BME280;23671;38.090;-122.570;2022-11-15T09:26:02;102118.47;;;7.59;59.90
37832;BME280;23671;38.090;-122.570;2022-11-15T09:28:31;102118.75;;;7.53;59.92
37832;BME280;23671;38.090;-122.570;2022-11-15T09:31:00;102124.00;;;7.53;59.80
37832;BME280;23671;38.090;-122.570;2022-11-15T09:33:28;102125.84;;;7.51;60.11
37832;BME280;23671;38.090;-122.570;2022-11-15T09:35:59;102119.00;;;7.47;59.93
37832;BME280;23671;38.090;-122.570;2022-11-15T09:38:27;102120.28;;;7.38;60.26
37832;BME280;23671;38.090;-122.570;2022-11-15T09:41:36;102125.66;;;7.35;60.55
37832;BME280;23671;38.090;-122.570;2022-11-15T09:49:31;102122.84;;;7.40;60.36
37832;BME280;23671;38.090;-122.570;2022-11-15T09:51:59;102120.63;;;7.30;60.39
37832;BME280;23671;38.090;-122.570;2022-11-15T09:54:53;102134.59;;;7.31;60.11
37832;BME280;23671;38.090;-122.570;2022-11-15T09:57:31;102134.22;;;7.40;59.73
37832;BME280;23671;38.090;-122.570;2022-11-15T10:00:34;102124.53;;;7.41;59.82
37832;BME280;23671;38.090;-122.570;2022-11-15T10:03:11;102132.72;;;7.34;60.20
37832;BME280;23671;38.090;-122.570;2022-11-15T10:05:44;102125.47;;;7.40;59.64
37832;BME280;23671;38.090;-122.570;2022-11-15T10:11:22;102128.69;;;7.26;60.07
37832;BME280;23671;38.090;-122.570;2022-11-15T10:13:52;102128.03;;;7.21;60.19
37832;BME280;23671;38.090;-122.570;2022-11-15T10:24:25;102125.66;;;7.15;60.05
37832;BME280;23671;38.090;-122.570;2022-11-15T10:26:55;102128.56;;;7.09;60.13
37832;BME280;23671;38.090;-122.570;2022-11-15T10:29:24;102123.31;;;7.09;60.25
37832;BME280;23671;38.090;-122.570;2022-11-15T10:31:53;102131.03;;;7.12;59.83
37832;BME280;23671;38.090;-122.570;2022-11-15T10:34:22;102141.88;;;7.04;60.32
37832;BME280;23671;38.090;-122.570;2022-11-15T10:36:59;102135.50;;;7.10;59.92
37832;BME280;23671;38.090;-122.570;2022-11-15T10:39:28;102127.94;;;7.02;60.22
37832;BME280;23671;38.090;-122.570;2022-11-15T10:41:55;102129.84;;;6.99;60.33
37832;BME280;23671;38.090;-122.570;2022-11-15T10:44:31;102134.50;;;6.92;60.55
37832;BME280;23671;38.090;-122.570;2022-11-15T10:47:04;102128.50;;;6.89;60.51
37832;BME280;23671;38.090;-122.570;2022-11-15T10:49:33;102131.03;;;6.92;60.26
37832;BME280;23671;38.090;-122.570;2022-11-15T10:55:27;102131.38;;;6.83;60.75
37832;BME280;23671;38.090;-122.570;2022-11-15T10:58:02;102138.59;;;6.78;60.64
37832;BME280;23671;38.090;-122.570;2022-11-15T11:00:33;102139.53;;;6.77;60.44
37832;BME280;23671;38.090;-122.570;2022-11-15T11:03:03;102139.59;;;6.75;60.54
37832;BME280;23671;38.090;-122.570;2022-11-15T11:05:38;102143.25;;;6.71;60.84
37832;BME280;23671;38.090;-122.570;2022-11-15T11:10:39;102149.53;;;6.67;60.56
37832;BME280;23671;38.090;-122.570;2022-11-15T11:13:32;102146.72;;;6.72;60.45
37832;BME280;23671;38.090;-122.570;2022-11-15T11:39:00;102156.00;;;6.59;60.48
37832;BME280;23671;38.090;-122.570;2022-11-15T11:44:41;102154.44;;;6.55;60.35
37832;BME280;23671;38.090;-122.570;2022-11-15T11:47:15;102163.22;;;6.54;60.38
37832;BME280;23671;38.090;-122.570;2022-11-15T11:49:59;102159.84;;;6.50;60.28
37832;BME280;23671;38.090;-122.570;2022-11-15T11:52:57;102172.13;;;6.50;60.32
37832;BME280;23671;38.090;-122.570;2022-11-15T12:00:53;102170.84;;;6.38;60.62
37832;BME280;23671;38.090;-122.570;2022-11-15T12:09:03;102174.53;;;6.32;60.74
37832;BME280;23671;38.090;-122.570;2022-11-15T12:12:06;102175.31;;;6.34;60.56
37832;BME280;23671;38.090;-122.570;2022-11-15T12:14:50;102173.63;;;6.33;60.49
37832;BME280;23671;38.090;-122.570;2022-11-15T12:17:24;102179.97;;;6.28;60.63
37832;BME280;23671;38.090;-122.570;2022-11-15T12:19:56;102169.53;;;6.26;60.57
37832;BME280;23671;38.090;-122.570;2022-11-15T12:22:35;102184.00;;;6.36;60.13
37832;BME280;23671;38.090;-122.570;2022-11-15T12:28:18;102184.34;;;6.27;60.24
37832;BME280;23671;38.090;-122.570;2022-11-15T12:33:45;102191.53;;;6.22;60.33
37832;BME280;23671;38.090;-122.570;2022-11-15T12:38:56;102180.31;;;6.19;60.56
37832;BME280;23671;38.090;-122.570;2022-11-15T12:41:28;102182.38;;;6.11;60.72
37832;BME280;23671;38.090;-122.570;2022-11-15T12:43:56;102184.06;;;6.12;60.70
37832;BME280;23671;38.090;-122.570;2022-11-15T12:49:00;102191.06;;;6.11;60.80
37832;BME280;23671;38.090;-122.570;2022-11-15T13:02:42;102195.84;;;6.00;60.83
37832;BME280;23671;38.090;-122.570;2022-11-15T13:17:43;102195.97;;;5.97;60.87
37832;BME280;23671;38.090;-122.570;2022-11-15T13:22:43;102199.56;;;5.95;60.67
37832;BME280;23671;38.090;-122.570;2022-11-15T13:28:44;102207.44;;;5.95;60.73
37832;BME280;23671;38.090;-122.570;2022-11-15T13:31:34;102208.72;;;5.83;60.87
37832;BME280;23671;38.090;-122.570;2022-11-15T13:34:38;102206.75;;;5.90;60.39
37832;BME280;23671;38.090;-122.570;2022-11-15T13:37:12;102202.66;;;5.81;61.11
37832;BME280;23671;38.090;-122.570;2022-11-15T13:39:53;102202.78;;;5.77;60.84
37832;BME280;23671;38.090;-122.570;2022-11-15T13:42:22;102213.34;;;5.75;61.05
37832;BME280;23671;38.090;-122.570;2022-11-15T13:44:58;102204.63;;;5.75;61.00
37832;BME280;23671;38.090;-122.570;2022-11-15T13:47:29;102207.31;;;5.73;60.98
37832;BME280;23671;38.090;-122.570;2022-11-15T13:49:59;102213.28;;;5.77;60.44
37832;BME280;23671;38.090;-122.570;2022-11-15T13:52:33;102214.34;;;5.71;61.09
37832;BME280;23671;38.090;-122.570;2022-11-15T13:57:53;102222.28;;;5.70;60.88
37832;BME280;23671;38.090;-122.570;2022-11-15T14:06:06;102205.00;;;5.64;61.42
37832;BME280;23671;38.090;-122.570;2022-11-15T14:08:34;102218.75;;;5.71;60.82
37832;BME280;23671;38.090;-122.570;2022-11-15T14:13:35;102213.56;;;5.69;60.77
37832;BME280;23671;38.090;-122.570;2022-11-15T14:16:19;102207.56;;;5.66;60.66
37832;BME280;23671;38.090;-122.570;2022-11-15T14:18:51;102207.63;;;5.64;61.34
37832;BME280;23671;38.090;-122.570;2022-11-15T14:21:20;102216.16;;;5.69;60.82
37832;BME280;23671;38.090;-122.570;2022-11-15T14:23:47;102218.06;;;5.66;60.87
37832;BME280;23671;38.090;-122.570;2022-11-15T14:26:34;102228.72;;;5.61;60.75
37832;BME280;23671;38.090;-122.570;2022-11-15T14:29:24;102220.88;;;5.60;61.15
37832;BME280;23671;38.090;-122.570;2022-11-15T14:31:51;102225.16;;;5.62;61.03
37832;BME280;23671;38.090;-122.570;2022-11-15T14:34:19;102221.75;;;5.60;60.66
37832;BME280;23671;38.090;-122.570;2022-11-15T14:36:48;102218.53;;;5.52;61.40
37832;BME280;23671;38.090;-122.570;2022-11-15T14:39:15;102223.69;;;5.55;61.17
37832;BME280;23671;38.090;-122.570;2022-11-15T14:41:42;102228.13;;;5.53;61.27
37832;BME280;23671;38.090;-122.570;2022-11-15T14:44:11;102221.63;;;5.63;60.43
37832;BME280;23671;38.090;-122.570;2022-11-15T14:46:39;102219.19;;;5.59;61.05
37832;BME280;23671;38.090;-122.570;2022-11-15T14:49:05;102226.88;;;5.63;60.19
37832;BME280;23671;38.090;-122.570;2022-11-15T14:51:32;102221.41;;;5.69;60.42
37832;BME280;23671;38.090;-122.570;2022-11-15T14:54:00;102227.66;;;5.65;60.36
37832;BME280;23671;38.090;-122.570;2022-11-15T14:56:27;102230.25;;;5.67;60.18
37832;BME280;23671;38.090;-122.570;2022-11-15T14:58:54;102233.63;;;5.70;60.26
37832;BME280;23671;38.090;-122.570;2022-11-15T15:01:25;102224.91;;;5.70;60.05
37832;BME280;23671;38.090;-122.570;2022-11-15T15:03:53;102231.06;;;5.69;60.22
37832;BME280;23671;38.090;-122.570;2022-11-15T15:06:24;102232.06;;;5.65;59.77
37832;BME280;23671;38.090;-122.570;2022-11-15T15:08:51;102232.09;;;5.63;60.01